createdAt,value
2018-04-26T00:02:15.792Z,14.63
2018-04-26T00:04:48.208Z,14.66
2018-04-26T00:07:26.893Z,14.67
2018-04-26T00:09:59.133Z,14.69
2018-04-26T00:12:31.193Z,14.75
2018-04-26T00:15:03.933Z,14.77
2018-04-26T00:17:35.735Z,14.81
2018-04-26T00:20:07.896Z,14.81
2018-04-26T00:22:39.555Z,14.85
2018-04-26T00:25:13.932Z,14.87
2018-04-26T00:27:46.231Z,14.90
2018-04-26T00:30:18.994Z,14.88
2018-04-26T00:32:50.673Z,14.87
2018-04-26T00:35:23.812Z,14.88
2018-04-26T00:37:55.991Z,14.83
2018-04-26T00:40:28.686Z,14.80
2018-04-26T00:43:02.854Z,14.76
2018-04-26T00:45:37.135Z,14.74
2018-04-26T00:48:10.914Z,14.73
2018-04-26T00:50:43.956Z,14.73
2018-04-26T00:53:17.429Z,14.76
2018-04-26T00:55:52.272Z,14.77
2018-04-26T00:58:27.193Z,14.75
2018-04-26T01:01:01.540Z,14.72
2018-04-26T01:03:33.413Z,14.73
2018-04-26T01:06:05.990Z,14.70
2018-04-26T01:08:40.473Z,14.68
2018-04-26T01:11:17.012Z,14.66
2018-04-26T01:13:52.491Z,14.65
2018-04-26T01:16:27.154Z,14.62
2018-04-26T01:19:00.351Z,14.57
2018-04-26T01:21:33.551Z,14.53
2018-04-26T01:24:06.333Z,14.51
2018-04-26T01:26:38.556Z,14.52
2018-04-26T01:29:13.691Z,14.51
2018-04-26T01:31:46.750Z,14.50
2018-04-26T01:37:40.712Z,14.43
2018-04-26T01:40:12.671Z,14.42
2018-04-26T01:42:46.533Z,14.40
2018-04-26T01:45:22.475Z,14.37
2018-04-26T01:47:54.452Z,14.33
2018-04-26T01:50:26.935Z,14.32
2018-04-26T01:53:00.193Z,14.35
2018-04-26T01:55:33.175Z,14.36
2018-04-26T01:58:05.408Z,14.36
2018-04-26T02:00:38.475Z,14.36
2018-04-26T02:03:10.628Z,14.31
2018-04-26T02:05:42.650Z,14.30
2018-04-26T02:08:14.932Z,14.32
2018-04-26T02:10:47.014Z,14.33
2018-04-26T02:13:19.791Z,14.32
2018-04-26T02:15:51.552Z,14.30
2018-04-26T02:18:25.312Z,14.27
2018-04-26T02:20:59.876Z,14.26
2018-04-26T02:23:34.111Z,14.26
2018-04-26T02:26:06.434Z,14.25
2018-04-26T02:28:38.795Z,14.24
2018-04-26T02:31:11.319Z,14.17
2018-04-26T02:33:45.891Z,14.15
2018-04-26T02:36:18.816Z,14.14
2018-04-26T02:38:51.370Z,14.11
2018-04-26T02:41:23.736Z,14.11
2018-04-26T02:43:57.753Z,14.13
2018-04-26T02:46:30.352Z,14.15
2018-04-26T02:49:03.512Z,14.14
2018-04-26T02:51:37.013Z,14.13
2018-04-26T02:54:10.977Z,14.12
2018-04-26T02:56:42.711Z,14.11
2018-04-26T02:59:15.714Z,14.09
2018-04-26T03:01:48.311Z,14.09
2018-04-26T03:04:21.030Z,14.08
2018-04-26T03:06:53.139Z,14.03
2018-04-26T03:09:26.734Z,13.99
2018-04-26T03:11:59.400Z,13.96
2018-04-26T03:14:32.773Z,13.96
2018-04-26T03:17:06.315Z,13.95
2018-04-26T03:19:38.509Z,13.94
2018-04-26T03:22:11.193Z,13.87
2018-04-26T03:24:43.894Z,13.84
2018-04-26T03:27:17.173Z,13.83
2018-04-26T03:29:49.108Z,13.85
2018-04-26T03:32:22.814Z,13.84
2018-04-26T03:34:54.895Z,13.80
2018-04-26T03:37:27.203Z,13.79
2018-04-26T03:40:01.257Z,13.81
2018-04-26T03:42:32.853Z,13.81
2018-04-26T03:45:05.914Z,13.81
2018-04-26T03:47:37.796Z,13.82
2018-04-26T03:50:10.510Z,13.82
2018-04-26T03:52:42.697Z,13.79
2018-04-26T03:55:15.296Z,13.79
2018-04-26T03:57:47.373Z,13.78
2018-04-26T04:00:38.039Z,13.75
2018-04-26T04:03:26.650Z,13.71
2018-04-26T04:09:05.646Z,13.71
2018-04-26T04:11:39.333Z,13.68
2018-04-26T04:14:13.190Z,13.64
2018-04-26T04:16:45.938Z,13.63
2018-04-26T04:19:18.431Z,13.58
2018-04-26T04:21:51.135Z,13.55
2018-04-26T04:24:23.834Z,13.50
2018-04-26T04:26:56.654Z,13.47
2018-04-26T04:29:29.951Z,13.42
2018-04-26T04:32:04.357Z,13.39
2018-04-26T04:34:38.676Z,13.32
2018-04-26T04:37:13.735Z,13.29
2018-04-26T04:39:48.814Z,13.30
2018-04-26T04:42:26.456Z,13.27
2018-04-26T04:45:03.252Z,13.24
2018-04-26T04:47:37.672Z,13.26
2018-04-26T04:50:10.810Z,13.30
2018-04-26T04:52:46.371Z,13.33
2018-04-26T04:55:20.251Z,13.34
2018-04-26T04:57:56.353Z,13.35
2018-04-26T05:00:29.318Z,13.33
2018-04-26T05:03:01.932Z,13.34
2018-04-26T05:05:36.455Z,13.36
2018-04-26T05:08:09.275Z,13.38
2018-04-26T05:10:41.017Z,13.42
2018-04-26T05:13:14.573Z,13.43
2018-04-26T05:15:47.284Z,13.43
2018-04-26T05:18:21.894Z,13.43
2018-04-26T05:20:53.569Z,13.43
2018-04-26T05:23:27.518Z,13.43
2018-04-26T05:26:02.236Z,13.45
2018-04-26T05:28:33.954Z,13.49
2018-04-26T05:31:12.308Z,13.54
2018-04-26T05:33:46.728Z,13.61
2018-04-26T05:36:22.012Z,13.63
2018-04-26T05:38:55.436Z,13.66
2018-04-26T05:41:31.111Z,13.69
2018-04-26T05:44:03.634Z,13.74
2018-04-26T05:46:35.717Z,13.77
2018-04-26T05:49:08.434Z,13.80
2018-04-26T05:51:40.796Z,13.84
2018-04-26T05:54:14.141Z,13.89
2018-04-26T05:56:47.031Z,13.91
2018-04-26T05:59:19.689Z,13.94
2018-04-26T06:01:56.321Z,13.97
2018-04-26T06:04:29.257Z,14.00
2018-04-26T06:07:02.560Z,14.05
2018-04-26T06:09:39.014Z,14.08
2018-04-26T06:12:18.453Z,14.14
2018-04-26T06:14:52.772Z,14.19
2018-04-26T06:17:31.091Z,14.26
2018-04-26T06:20:06.254Z,14.35
2018-04-26T06:22:39.538Z,14.46
2018-04-26T06:25:13.081Z,14.54
2018-04-26T06:27:51.512Z,14.57
2018-04-26T06:30:24.959Z,14.57
2018-04-26T06:32:59.950Z,14.63
2018-04-26T06:35:33.133Z,14.71
2018-04-26T06:38:05.833Z,14.77
2018-04-26T06:40:37.557Z,14.81
2018-04-26T06:43:11.794Z,14.81
2018-04-26T06:45:43.538Z,14.87
2018-04-26T06:48:17.136Z,14.89
2018-04-26T06:50:49.056Z,14.95
2018-04-26T06:53:22.156Z,15.03
2018-04-26T06:55:57.817Z,14.92
2018-04-26T06:58:31.275Z,14.84
2018-04-26T07:01:07.211Z,14.88
2018-04-26T07:03:40.297Z,14.93
2018-04-26T07:06:14.734Z,14.93
2018-04-26T07:08:46.853Z,14.91
2018-04-26T07:11:20.256Z,14.80
2018-04-26T07:13:53.333Z,14.80
2018-04-26T07:16:28.274Z,14.72
2018-04-26T07:19:02.394Z,14.65
2018-04-26T07:21:39.840Z,14.57
2018-04-26T07:24:12.039Z,14.51
2018-04-26T07:26:44.377Z,14.55
2018-04-26T07:29:18.217Z,14.71
2018-04-26T07:31:50.397Z,14.92
2018-04-26T07:34:22.868Z,15.10
2018-04-26T07:36:54.495Z,15.16
2018-04-26T07:39:27.159Z,15.21
2018-04-26T07:41:59.696Z,15.25
2018-04-26T07:44:32.201Z,15.31
2018-04-26T07:47:06.538Z,15.39
2018-04-26T07:49:39.618Z,15.44
2018-04-26T07:52:13.273Z,15.61
2018-04-26T07:54:47.711Z,15.79
2018-04-26T07:57:20.855Z,15.82
2018-04-26T07:59:53.290Z,15.78
2018-04-26T08:02:26.253Z,16.30
2018-04-26T08:05:05.171Z,16.73
2018-04-26T08:07:38.676Z,17.10
2018-04-26T08:10:11.589Z,17.37
2018-04-26T08:12:44.573Z,17.44
2018-04-26T08:15:18.617Z,17.59
2018-04-26T08:17:51.336Z,17.75
2018-04-26T08:20:24.257Z,18.13
2018-04-26T08:22:58.713Z,18.10
2018-04-26T08:25:31.517Z,18.01
2018-04-26T08:28:07.695Z,17.82
2018-04-26T08:30:41.174Z,17.54
2018-04-26T08:33:17.713Z,17.10
2018-04-26T08:35:51.739Z,16.82
2018-04-26T08:38:25.017Z,16.79
2018-04-26T08:40:56.857Z,16.99
2018-04-26T08:43:30.669Z,17.18
2018-04-26T08:46:04.373Z,17.32
2018-04-26T08:48:36.819Z,17.25
2018-04-26T08:51:11.049Z,17.03
2018-04-26T08:53:46.354Z,17.10
2018-04-26T08:56:22.796Z,17.41
2018-04-26T08:58:57.658Z,17.53
2018-04-26T09:01:33.377Z,17.69
2018-04-26T09:04:06.193Z,17.87
2018-04-26T09:06:38.974Z,18.05
2018-04-26T09:09:14.399Z,18.07
2018-04-26T09:11:49.873Z,17.99
2018-04-26T09:14:22.809Z,17.69
2018-04-26T09:16:58.855Z,17.64
2018-04-26T09:19:41.332Z,17.60
2018-04-26T09:22:14.469Z,17.42
2018-04-26T09:24:48.961Z,17.18
2018-04-26T09:27:21.095Z,16.94
2018-04-26T09:29:55.856Z,16.77
2018-04-26T09:32:28.577Z,16.63
2018-04-26T09:35:01.014Z,16.44
2018-04-26T09:37:35.629Z,16.32
2018-04-26T09:40:09.456Z,16.40
2018-04-26T09:42:44.453Z,16.54
2018-04-26T09:45:21.475Z,16.95
2018-04-26T09:47:57.790Z,17.26
2018-04-26T09:50:31.894Z,17.51
2018-04-26T09:53:07.552Z,17.76
2018-04-26T09:55:41.692Z,17.94
2018-04-26T09:58:14.353Z,18.08
2018-04-26T10:01:01.447Z,17.94
2018-04-26T10:03:34.358Z,17.68
2018-04-26T10:06:12.931Z,17.33
2018-04-26T10:08:47.223Z,16.86
2018-04-26T10:11:23.614Z,16.37
2018-04-26T10:13:58.650Z,16.31
2018-04-26T10:16:31.553Z,16.58
2018-04-26T10:19:04.011Z,16.71
2018-04-26T10:21:41.327Z,16.58
2018-04-26T10:24:16.192Z,16.53
2018-04-26T10:26:49.189Z,16.83
2018-04-26T10:29:24.070Z,17.36
2018-04-26T10:32:00.132Z,17.88
2018-04-26T10:34:33.510Z,18.33
2018-04-26T10:37:09.280Z,18.66
2018-04-26T10:39:42.408Z,18.57
2018-04-26T10:42:15.451Z,18.44
2018-04-26T10:44:47.409Z,18.21
2018-04-26T10:47:21.031Z,17.88
2018-04-26T10:49:52.770Z,17.48
2018-04-26T10:52:26.888Z,16.96
2018-04-26T10:54:59.268Z,16.83
2018-04-26T10:57:36.213Z,17.04
2018-04-26T11:00:11.887Z,17.22
2018-04-26T11:02:44.951Z,17.52
2018-04-26T11:05:19.851Z,17.95
2018-04-26T11:07:56.930Z,18.28
2018-04-26T11:10:30.832Z,18.43
2018-04-26T11:13:09.231Z,18.40
2018-04-26T11:15:45.207Z,18.10
2018-04-26T11:18:22.135Z,17.80
2018-04-26T11:20:57.048Z,17.91
2018-04-26T11:23:30.569Z,18.13
2018-04-26T11:26:04.253Z,18.29
2018-04-26T11:28:37.234Z,18.47
2018-04-26T11:31:11.756Z,18.61
2018-04-26T11:33:43.931Z,18.84
2018-04-26T11:36:18.370Z,19.00
2018-04-26T11:38:50.681Z,18.99
2018-04-26T11:41:23.887Z,18.97
2018-04-26T11:43:56.852Z,19.09
2018-04-26T11:46:30.178Z,19.14
2018-04-26T11:49:05.650Z,19.22
2018-04-26T11:51:38.716Z,19.10
2018-04-26T11:54:11.678Z,18.96
2018-04-26T11:56:45.072Z,18.99
2018-04-26T11:59:17.758Z,19.05
2018-04-26T12:01:49.992Z,18.99
2018-04-26T12:04:22.091Z,19.03
2018-04-26T12:06:55.619Z,19.27
2018-04-26T12:09:31.310Z,19.46
2018-04-26T12:12:03.915Z,19.71
2018-04-26T12:14:47.835Z,19.85
2018-04-26T12:17:20.889Z,19.65
2018-04-26T12:19:54.170Z,19.55
2018-04-26T12:22:28.874Z,19.27
2018-04-26T12:25:00.938Z,18.87
2018-04-26T12:27:34.296Z,18.84
2018-04-26T12:30:06.013Z,18.89
2018-04-26T12:32:37.975Z,19.07
2018-04-26T12:35:10.099Z,19.14
2018-04-26T12:37:46.613Z,19.19
2018-04-26T12:40:18.284Z,18.90
2018-04-26T12:42:54.397Z,18.84
2018-04-26T12:45:27.398Z,18.96
2018-04-26T12:48:01.372Z,19.18
2018-04-26T12:50:36.854Z,19.32
2018-04-26T12:53:10.075Z,19.46
2018-04-26T12:55:43.453Z,19.73
2018-04-26T12:58:15.564Z,19.71
2018-04-26T13:00:50.313Z,19.41
2018-04-26T13:03:28.534Z,19.39
2018-04-26T13:06:06.394Z,19.60
2018-04-26T13:08:41.651Z,19.90
2018-04-26T13:11:16.596Z,20.03
2018-04-26T13:13:49.451Z,20.06
2018-04-26T13:16:22.173Z,20.04
2018-04-26T13:18:56.234Z,19.95
2018-04-26T13:21:32.167Z,19.96
2018-04-26T13:24:06.114Z,19.98
2018-04-26T13:26:40.055Z,19.87
2018-04-26T13:29:12.835Z,20.09
2018-04-26T13:31:57.196Z,20.11
2018-04-26T13:34:29.432Z,20.05
2018-04-26T13:37:02.075Z,20.10
2018-04-26T13:39:37.477Z,20.04
2018-04-26T13:42:10.313Z,19.71
2018-04-26T13:44:43.656Z,19.28
2018-04-26T13:47:17.951Z,19.01
2018-04-26T13:49:50.798Z,19.00
2018-04-26T13:52:25.016Z,19.03
2018-04-26T13:54:58.268Z,18.96
2018-04-26T13:57:30.614Z,18.99
2018-04-26T14:00:09.753Z,19.20
2018-04-26T14:02:42.792Z,19.05
2018-04-26T14:05:17.500Z,18.91
2018-04-26T14:07:50.856Z,18.79
2018-04-26T14:10:23.974Z,19.02
2018-04-26T14:12:57.056Z,19.42
2018-04-26T14:15:33.274Z,19.71
2018-04-26T14:18:07.969Z,19.79
2018-04-26T14:20:42.333Z,19.84
2018-04-26T14:23:19.719Z,20.02
2018-04-26T14:25:52.655Z,20.22
2018-04-26T14:28:27.181Z,20.37
2018-04-26T14:31:02.150Z,20.24
2018-04-26T14:33:38.217Z,20.03
2018-04-26T14:36:11.371Z,19.98
2018-04-26T14:38:51.415Z,20.08
2018-04-26T14:41:26.091Z,20.10
2018-04-26T14:44:03.112Z,20.10
2018-04-26T14:46:37.834Z,19.78
2018-04-26T14:49:12.729Z,19.31
2018-04-26T14:51:46.656Z,19.05
2018-04-26T14:54:19.211Z,19.02
2018-04-26T14:56:54.542Z,19.06
2018-04-26T14:59:31.672Z,19.25
2018-04-26T15:02:04.269Z,19.31
2018-04-26T15:04:40.430Z,19.29
2018-04-26T15:07:14.594Z,19.01
2018-04-26T15:09:47.312Z,18.78
2018-04-26T15:12:20.195Z,18.80
2018-04-26T15:20:53.575Z,18.28
2018-04-26T15:23:25.974Z,18.14
2018-04-26T15:26:00.110Z,18.16
2018-04-26T15:28:33.368Z,18.29
2018-04-26T15:31:06.314Z,18.38
2018-04-26T15:33:43.437Z,18.53
2018-04-26T15:36:15.899Z,18.66
2018-04-26T15:38:50.860Z,18.53
2018-04-26T15:41:24.599Z,18.23
2018-04-26T15:44:01.533Z,18.05
2018-04-26T15:46:35.179Z,17.88
2018-04-26T15:49:09.095Z,17.74
2018-04-26T15:51:47.795Z,17.64
2018-04-26T15:54:37.654Z,17.75
2018-04-26T15:57:32.373Z,17.80
2018-04-26T16:00:26.529Z,17.69
2018-04-26T16:03:16.716Z,17.73
2018-04-26T16:06:06.055Z,17.87
2018-04-26T16:12:05.891Z,18.01
2018-04-26T16:14:56.015Z,17.94
2018-04-26T17:28:58.645Z,15.84
2018-04-26T17:31:33.299Z,15.79
2018-04-26T17:34:07.561Z,15.75
2018-04-26T17:36:43.478Z,15.74
2018-04-26T17:39:19.724Z,15.71
2018-04-26T17:41:53.560Z,15.68
2018-04-26T17:44:25.902Z,15.59
2018-04-26T17:47:02.058Z,15.49
2018-04-26T17:49:35.080Z,15.39
2018-04-26T17:52:09.942Z,15.31
2018-04-26T17:54:43.618Z,15.21
2018-04-26T17:57:16.124Z,15.10
2018-04-26T17:59:48.616Z,15.01
2018-04-26T18:02:22.622Z,14.92
2018-04-26T18:04:55.800Z,14.83
2018-04-26T18:07:28.501Z,14.75
2018-04-26T18:10:01.100Z,14.68
2018-04-26T18:12:36.521Z,14.60
2018-04-26T18:15:11.575Z,14.49
2018-04-26T18:17:47.326Z,14.39
2018-04-26T18:20:19.309Z,14.28
2018-04-26T18:22:53.036Z,14.15
2018-04-26T18:25:27.194Z,14.02
2018-04-26T18:28:01.241Z,13.89
2018-04-26T18:30:35.355Z,13.76
2018-04-26T18:33:09.342Z,13.62
2018-04-26T18:35:42.853Z,13.50
2018-04-26T18:38:18.181Z,13.36
2018-04-26T18:40:51.260Z,13.24
2018-04-26T18:43:27.707Z,13.12
2018-04-26T18:46:00.157Z,12.99
2018-04-26T18:48:33.520Z,12.86
2018-04-26T18:51:07.009Z,12.74
2018-04-26T18:53:40.856Z,12.61
2018-04-26T18:56:15.802Z,12.52
2018-04-26T18:58:49.762Z,12.41
2018-04-26T19:01:23.777Z,12.32
2018-04-26T19:03:57.856Z,12.18
2018-04-26T19:06:30.719Z,12.07
2018-04-26T19:09:05.419Z,11.98
2018-04-26T19:11:39.462Z,11.88
2018-04-26T19:14:12.818Z,11.79
2018-04-26T19:16:47.121Z,11.69
2018-04-26T19:19:22.258Z,11.60
2018-04-26T19:21:57.365Z,11.50
2018-04-26T19:24:30.744Z,11.42
2018-04-26T19:27:03.664Z,11.34
2018-04-26T19:29:36.705Z,11.26
2018-04-26T19:32:09.447Z,11.18
2018-04-26T19:34:42.925Z,11.11
2018-04-26T19:37:17.723Z,11.02
2018-04-26T19:39:51.147Z,10.91
2018-04-26T19:45:10.986Z,10.75
2018-04-26T19:47:45.006Z,10.68
2018-04-26T19:50:18.005Z,10.62
2018-04-26T19:52:51.626Z,10.54
2018-04-26T19:55:24.243Z,10.49
2018-04-26T19:57:57.202Z,10.42
2018-04-26T20:00:29.927Z,10.33
2018-04-26T20:03:04.205Z,10.24
2018-04-26T20:05:38.045Z,10.15
2018-04-26T20:08:12.052Z,10.07
2018-04-26T20:10:45.832Z,9.97
2018-04-26T20:13:19.725Z,9.88
2018-04-26T20:15:53.766Z,9.81
2018-04-26T20:18:27.248Z,9.72
2018-04-26T20:21:01.006Z,9.66
2018-04-26T20:23:34.685Z,9.57
2018-04-26T20:26:06.850Z,9.52
2018-04-26T20:28:42.684Z,9.46
2018-04-26T20:31:15.146Z,9.40
2018-04-26T20:33:48.309Z,9.35
2018-04-26T20:36:20.721Z,9.30
2018-04-26T20:38:53.344Z,9.24
2018-04-26T20:41:26.830Z,9.19
2018-04-26T20:43:59.848Z,9.11
2018-04-26T20:46:31.864Z,9.08
2018-04-26T20:49:04.467Z,9.01
2018-04-26T20:51:36.487Z,8.92
2018-04-26T20:54:09.688Z,8.87
2018-04-26T20:56:44.389Z,8.81
2018-04-26T20:59:18.182Z,8.75
2018-04-26T21:01:50.708Z,8.69
2018-04-26T21:04:24.886Z,8.66
2018-04-26T21:06:58.011Z,8.60
2018-04-26T21:09:30.923Z,8.55
2018-04-26T21:12:05.205Z,8.52
2018-04-26T21:14:38.686Z,8.43
2018-04-26T21:17:11.208Z,8.38
2018-04-26T21:19:43.966Z,8.34
2018-04-26T21:22:16.863Z,8.24
2018-04-26T21:24:50.389Z,8.16
2018-04-26T21:27:23.166Z,8.09
2018-04-26T21:29:56.883Z,8.07
2018-04-26T21:32:31.008Z,8.03
2018-04-26T21:35:04.769Z,7.99
2018-04-26T21:37:40.442Z,8.04
2018-04-26T21:40:16.404Z,7.99
2018-04-26T21:42:50.986Z,7.90
2018-04-26T21:45:23.785Z,7.84
2018-04-26T21:47:57.883Z,7.78
2018-04-26T21:50:35.984Z,7.72
2018-04-26T21:53:14.527Z,7.67
2018-04-26T21:55:53.844Z,7.62
2018-04-26T21:58:31.766Z,7.56
2018-04-26T22:01:08.864Z,7.52
2018-04-26T22:07:00.904Z,7.43
2018-04-26T22:09:35.164Z,7.38
2018-04-26T22:34:12.476Z,7.02
2018-04-26T22:36:41.265Z,7.00
2018-04-26T22:39:11.117Z,6.98
2018-04-26T22:41:39.744Z,6.96
2018-04-26T22:44:13.556Z,6.94
2018-04-26T22:46:48.135Z,6.93
2018-04-26T22:49:21.759Z,6.92
2018-04-26T22:51:55.150Z,6.89
2018-04-26T22:54:28.354Z,6.88
2018-04-26T22:57:01.252Z,6.84
2018-04-26T22:59:33.999Z,6.83
2018-04-26T23:02:06.817Z,6.81
2018-04-26T23:04:40.378Z,6.77
2018-04-26T23:07:13.833Z,6.75
2018-04-26T23:09:46.029Z,6.73
2018-04-26T23:12:20.167Z,6.70
2018-04-26T23:14:54.171Z,6.65
2018-04-26T23:17:26.881Z,6.60
2018-04-26T23:20:01.150Z,6.57
2018-04-26T23:22:34.235Z,6.53
2018-04-26T23:25:08.257Z,6.52
2018-04-26T23:27:41.655Z,6.51
2018-04-26T23:30:15.015Z,6.51
2018-04-26T23:32:49.432Z,6.48
2018-04-26T23:35:22.029Z,6.47
2018-04-26T23:37:54.793Z,6.45
2018-04-26T23:40:29.391Z,6.40
2018-04-26T23:43:03.127Z,6.39
2018-04-26T23:45:38.036Z,6.38
2018-04-26T23:48:10.851Z,6.40
2018-04-26T23:50:46.190Z,6.39
2018-04-26T23:53:18.215Z,6.38
2018-04-26T23:55:50.978Z,6.38
2018-04-26T23:58:22.557Z,6.38
